Time;durP1;ratioP1;P1;durP2;ratioP2;P2;SDS_P1;SDS_P2;PMS_P1;PMS_P2;Temp;Humidity;BMP_temperature;BMP_pressure;BME280_temperature;BME280_humidity;BME280_pressure;Samples;Min_cycle;Max_cycle;Signal;HPM_P1;HPM_P2
2021/01/31 00:00:57;;;;;;;;;;;;;;;3.55;51.23;100264.63;5055324;27;97281;-81
2021/01/31 00:03:26;;;;;;;;;;;;;;;3.97;49.63;100270.09;5053907;27;101019;-81
2021/01/31 00:05:53;;;;;;;;;;;;;;;3.84;50.51;100269.44;5055429;27;99894;-81
2021/01/31 00:08:21;;;;;;;;;;;;;;;3.83;50.94;100272.06;5046559;27;96872;-81
2021/01/31 00:10:48;;;;;;;;;;;;;;;3.86;50.15;100265.06;5054022;27;98817;-81
2021/01/31 00:13:15;;;;;;;;;;;;;;;3.51;50.88;100268.19;5054079;27;100847;-80
2021/01/31 00:15:43;;;;;;;;;;;;;;;3.66;51.36;100261.00;5058683;27;98869;-80
2021/01/31 00:18:09;;;;;;;;;;;;;;;3.63;51.39;100269.75;5069866;27;96968;-80
2021/01/31 00:20:36;;;;;;;;;;;;;;;3.53;51.58;100269.03;5071477;27;97123;-80
2021/01/31 00:23:03;;;;;;;;;;;;;;;3.51;51.51;100269.94;5072128;27;98232;-80
2021/01/31 00:25:30;;;;;;;;;;;;;;;3.55;52.35;100272.47;5071064;27;98081;-80
2021/01/31 00:27:56;;;;;;;;;;;;;;;3.52;51.55;100266.44;5076749;27;97257;-81
2021/01/31 00:30:23;;;;;;;;;;;;;;;3.46;52.01;100272.63;5077887;27;96821;-81
2021/01/31 00:32:49;;;;;;;;;;;;;;;3.40;51.92;100270.09;5064500;27;100482;-81
2021/01/31 00:35:17;;;;;;;;;;;;;;;3.44;52.34;100274.38;5073282;27;101052;-81
2021/01/31 00:37:43;;;;;;;;;;;;;;;3.37;52.28;100272.72;5074864;27;96544;-80
2021/01/31 00:40:10;;;;;;;;;;;;;;;3.49;52.09;100276.91;5077064;27;96298;-80
2021/01/31 00:42:37;;;;;;;;;;;;;;;3.60;51.60;100277.66;5073133;27;96937;-81
2021/01/31 00:45:03;;;;;;;;;;;;;;;3.33;51.48;100276.28;5068485;27;100902;-82
2021/01/31 00:47:32;;;;;;;;;;;;;;;3.23;51.53;100279.88;5058131;27;96862;-81
2021/01/31 00:49:58;;;;;;;;;;;;;;;3.25;51.77;100269.44;5062616;27;97866;-80
2021/01/31 00:52:24;;;;;;;;;;;;;;;3.50;51.03;100278.66;5055106;27;99375;-80
2021/01/31 00:54:50;;;;;;;;;;;;;;;3.33;51.24;100281.50;5044098;27;97750;-81
2021/01/31 00:57:16;;;;;;;;;;;;;;;3.41;51.29;100284.88;5044670;27;97111;-81
2021/01/31 00:59:43;;;;;;;;;;;;;;;3.82;50.66;100278.16;5053386;27;96916;-80
2021/01/31 01:02:10;;;;;;;;;;;;;;;3.49;51.53;100282.13;5054281;27;98137;-80
2021/01/31 01:04:36;;;;;;;;;;;;;;;3.59;50.95;100274.16;5033992;28;98196;-81
2021/01/31 01:07:02;;;;;;;;;;;;;;;3.61;51.19;100271.50;5050652;27;96953;-81
2021/01/31 01:09:27;;;;;;;;;;;;;;;3.52;51.60;100272.53;5053415;27;96880;-81
2021/01/31 01:11:53;;;;;;;;;;;;;;;3.52;51.32;100282.09;5050769;27;101645;-81
2021/01/31 01:14:19;;;;;;;;;;;;;;;3.47;51.87;100281.31;5053234;27;98924;-81
2021/01/31 01:16:46;;;;;;;;;;;;;;;3.49;51.76;100283.00;5052090;27;96794;-80
2021/01/31 01:19:12;;;;;;;;;;;;;;;3.57;51.37;100273.31;5052521;27;97239;-80
2021/01/31 01:21:37;;;;;;;;;;;;;;;3.44;51.76;100274.38;5052732;27;98214;-80
2021/01/31 01:24:03;;;;;;;;;;;;;;;3.47;51.63;100273.47;5058163;27;101486;-79
2021/01/31 01:26:30;;;;;;;;;;;;;;;3.37;51.92;100275.34;5046391;27;97059;-82
2021/01/31 01:28:56;;;;;;;;;;;;;;;3.55;51.66;100271.59;5047834;27;97057;-80
2021/01/31 01:31:22;;;;;;;;;;;;;;;3.30;51.88;100275.44;5052667;27;98000;-80
2021/01/31 01:33:50;;;;;;;;;;;;;;;3.52;52.00;100267.31;5052717;27;102319;-81
2021/01/31 01:36:16;;;;;;;;;;;;;;;3.43;51.92;100275.25;5050673;27;97348;-80
2021/01/31 01:38:42;;;;;;;;;;;;;;;3.14;52.38;100274.81;5041520;27;97286;-81
2021/01/31 01:41:08;;;;;;;;;;;;;;;3.08;52.65;100274.88;5052987;27;102586;-80
2021/01/31 01:43:34;;;;;;;;;;;;;;;2.97;52.84;100271.50;5047852;27;101690;-81
2021/01/31 01:46:08;;;;;;;;;;;;;;;2.71;53.69;100275.28;5049049;27;96865;-80
2021/01/31 01:48:34;;;;;;;;;;;;;;;2.41;54.44;100270.41;5049273;27;98370;-79
2021/01/31 01:51:01;;;;;;;;;;;;;;;2.69;53.22;100266.63;5051350;27;99069;-80
2021/01/31 01:53:27;;;;;;;;;;;;;;;2.56;53.48;100264.19;5051027;27;99329;-80
2021/01/31 01:55:55;;;;;;;;;;;;;;;2.89;53.01;100265.56;5032804;27;97498;-80
2021/01/31 01:58:22;;;;;;;;;;;;;;;2.79;52.91;100262.16;5042034;27;96836;-79
2021/01/31 02:00:48;;;;;;;;;;;;;;;2.67;52.87;100262.31;5052124;27;99115;-80
2021/01/31 02:03:16;;;;;;;;;;;;;;;2.65;53.18;100262.31;5051237;27;99343;-80
2021/01/31 02:05:46;;;;;;;;;;;;;;;2.29;53.80;100265.31;5051688;27;98179;-81
2021/01/31 02:08:12;;;;;;;;;;;;;;;2.79;53.13;100255.22;5050605;27;96964;-80
2021/01/31 02:10:38;;;;;;;;;;;;;;;2.94;52.12;100261.13;5051997;27;97910;-80
2021/01/31 02:13:05;;;;;;;;;;;;;;;2.82;52.67;100258.66;5052580;27;98102;-80
2021/01/31 02:15:31;;;;;;;;;;;;;;;2.77;53.04;100256.97;5052726;27;96867;-80
2021/01/31 02:18:18;;;;;;;;;;;;;;;2.43;53.35;100255.59;5051923;27;96911;-80
2021/01/31 02:21:05;;;;;;;;;;;;;;;2.59;53.20;100256.31;5043214;27;99460;-80
2021/01/31 02:23:44;;;;;;;;;;;;;;;2.86;52.10;100256.00;5051558;27;100001;-81
2021/01/31 02:26:11;;;;;;;;;;;;;;;2.34;53.67;100258.31;5051226;27;97308;-80
2021/01/31 02:28:59;;;;;;;;;;;;;;;2.40;54.08;100258.25;5045772;27;98810;-80
2021/01/31 02:31:26;;;;;;;;;;;;;;;2.23;54.31;100262.78;5034164;27;100153;-80
2021/01/31 02:33:55;;;;;;;;;;;;;;;2.08;54.15;100258.56;5055809;27;101759;-79
2021/01/31 02:36:28;;;;;;;;;;;;;;;2.35;53.34;100271.34;5054636;27;96705;-80
2021/01/31 02:39:07;;;;;;;;;;;;;;;2.45;53.13;100263.41;5039886;27;96829;-80
2021/01/31 02:41:36;;;;;;;;;;;;;;;2.43;53.22;100263.41;5053350;27;99849;-78
2021/01/31 02:44:04;;;;;;;;;;;;;;;2.30;53.38;100273.09;5054242;27;97796;-82
2021/01/31 02:46:33;;;;;;;;;;;;;;;2.09;53.97;100267.25;5059087;27;96789;-81
2021/01/31 02:49:04;;;;;;;;;;;;;;;1.98;53.96;100265.56;5042971;27;96873;-81
2021/01/31 02:51:33;;;;;;;;;;;;;;;1.97;54.19;100276.00;5050598;27;96886;-82
2021/01/31 02:54:03;;;;;;;;;;;;;;;1.82;54.52;100266.59;5050685;27;99336;-81
2021/01/31 02:56:30;;;;;;;;;;;;;;;2.04;54.02;100272.47;5051611;27;98890;-82
2021/01/31 02:59:01;;;;;;;;;;;;;;;2.18;53.85;100267.13;5051527;27;96911;-81
2021/01/31 03:01:31;;;;;;;;;;;;;;;1.87;54.01;100263.94;5038148;27;100390;-80
2021/01/31 03:04:00;;;;;;;;;;;;;;;1.82;54.26;100269.19;5032896;27;100584;-80
2021/01/31 03:06:28;;;;;;;;;;;;;;;1.73;54.70;100273.59;5050956;27;96984;-80
2021/01/31 03:08:57;;;;;;;;;;;;;;;1.86;53.97;100273.50;5051106;27;98826;-81
2021/01/31 03:11:26;;;;;;;;;;;;;;;1.69;54.91;100271.91;5049925;27;98223;-82
2021/01/31 03:13:54;;;;;;;;;;;;;;;1.73;54.25;100274.47;5047903;27;98168;-80
2021/01/31 03:16:23;;;;;;;;;;;;;;;1.51;54.62;100265.09;5058847;27;96890;-82
2021/01/31 03:18:52;;;;;;;;;;;;;;;1.63;54.09;100267.59;5058279;27;96886;-82
2021/01/31 03:21:20;;;;;;;;;;;;;;;1.81;53.99;100272.69;5048601;27;98974;-82
2021/01/31 03:23:50;;;;;;;;;;;;;;;2.11;53.33;100268.06;5050846;27;100993;-79
2021/01/31 03:26:18;;;;;;;;;;;;;;;2.17;53.19;100274.09;5051956;27;96819;-81
2021/01/31 03:28:44;;;;;;;;;;;;;;;2.18;52.93;100281.03;5047720;27;96937;-80
2021/01/31 03:31:12;;;;;;;;;;;;;;;2.27;52.55;100280.09;5049823;27;96939;-79
2021/01/31 03:33:41;;;;;;;;;;;;;;;2.33;53.19;100280.03;5049008;27;99215;-80
2021/01/31 03:36:07;;;;;;;;;;;;;;;2.52;52.63;100276.38;5031184;27;96612;-79
2021/01/31 03:38:36;;;;;;;;;;;;;;;2.28;52.84;100277.50;5045593;27;98538;-79
2021/01/31 03:41:05;;;;;;;;;;;;;;;2.59;52.14;100285.88;5049825;27;98370;-79
2021/01/31 03:43:31;;;;;;;;;;;;;;;2.24;53.02;100294.03;5049722;27;100929;-80
2021/01/31 03:46:02;;;;;;;;;;;;;;;2.24;52.27;100294.03;5044851;27;96837;-81
2021/01/31 03:48:30;;;;;;;;;;;;;;;2.33;51.68;100293.09;5047888;27;97127;-80
2021/01/31 03:50:56;;;;;;;;;;;;;;;2.38;52.41;100291.28;5049178;27;99835;-80
2021/01/31 03:53:22;;;;;;;;;;;;;;;2.32;52.02;100288.75;5050923;27;98263;-80
2021/01/31 03:55:48;;;;;;;;;;;;;;;2.02;53.17;100289.88;5044177;28;96644;-80
2021/01/31 03:58:17;;;;;;;;;;;;;;;1.83;53.53;100299.59;5069461;27;96897;-81
2021/01/31 04:00:46;;;;;;;;;;;;;;;1.93;53.78;100301.25;5059693;27;97937;-80
2021/01/31 04:03:15;;;;;;;;;;;;;;;1.91;53.83;100295.16;5050920;27;97756;-80
2021/01/31 04:05:45;;;;;;;;;;;;;;;2.30;52.86;100303.53;5049817;27;96981;-80
2021/01/31 04:08:12;;;;;;;;;;;;;;;2.14;52.55;100299.34;5050417;27;97165;-81
2021/01/31 04:10:40;;;;;;;;;;;;;;;2.20;52.46;100294.94;5034469;27;97890;-80
2021/01/31 04:13:08;;;;;;;;;;;;;;;2.04;52.93;100297.66;5030257;28;98176;-81
2021/01/31 04:15:39;;;;;;;;;;;;;;;1.62;53.94;100289.31;5035855;27;97224;-80
2021/01/31 04:18:05;;;;;;;;;;;;;;;1.50;54.12;100290.25;5035627;27;96957;-80
2021/01/31 04:20:31;;;;;;;;;;;;;;;1.60;54.17;100281.50;5049626;27;99127;-80
2021/01/31 04:22:57;;;;;;;;;;;;;;;1.32;54.17;100276.44;5046205;27;98349;-80
2021/01/31 04:25:26;;;;;;;;;;;;;;;1.46;53.96;100282.44;5046824;27;96872;-80
2021/01/31 04:27:52;;;;;;;;;;;;;;;1.38;54.48;100276.44;5050086;27;96864;-81
2021/01/31 04:30:19;;;;;;;;;;;;;;;1.46;54.30;100277.25;5049739;27;98139;-80
2021/01/31 04:32:46;;;;;;;;;;;;;;;1.61;53.64;100269.34;5051644;27;97578;-80
2021/01/31 04:35:12;;;;;;;;;;;;;;;1.60;53.11;100271.09;5053047;27;96894;-80
2021/01/31 04:37:39;;;;;;;;;;;;;;;1.60;52.98;100273.69;5044980;27;97103;-80
2021/01/31 04:40:06;;;;;;;;;;;;;;;1.31;53.50;100270.41;5053201;27;101429;-84
2021/01/31 04:42:32;;;;;;;;;;;;;;;1.56;53.19;100271.13;5050716;27;99667;-81
2021/01/31 04:44:58;;;;;;;;;;;;;;;1.48;53.28;100270.28;5052969;27;97046;-80
2021/01/31 04:47:25;;;;;;;;;;;;;;;1.53;53.39;100268.53;5049703;27;96823;-80
2021/01/31 04:49:58;;;;;;;;;;;;;;;1.38;52.92;100276.44;5051947;27;99721;-81
2021/01/31 04:52:31;;;;;;;;;;;;;;;1.19;53.18;100281.72;5050065;27;100402;-81
2021/01/31 04:55:08;;;;;;;;;;;;;;;1.18;53.87;100285.19;5051522;27;96876;-80
2021/01/31 04:57:39;;;;;;;;;;;;;;;1.20;53.76;100280.88;5051936;27;97012;-80
2021/01/31 05:00:06;;;;;;;;;;;;;;;1.02;53.95;100278.34;5047337;27;99223;-80
2021/01/31 05:02:35;;;;;;;;;;;;;;;0.97;54.24;100279.25;5052486;27;101696;-80
2021/01/31 05:05:02;;;;;;;;;;;;;;;1.00;54.05;100276.63;5051680;27;96986;-80
2021/01/31 05:07:32;;;;;;;;;;;;;;;1.04;53.90;100279.22;5052223;27;97179;-80
2021/01/31 05:09:58;;;;;;;;;;;;;;;0.93;54.06;100278.38;5051737;27;101865;-81
2021/01/31 05:12:28;;;;;;;;;;;;;;;0.82;54.87;100272.34;5049975;27;98166;-81
2021/01/31 05:15:03;;;;;;;;;;;;;;;0.86;54.38;100284.47;5050860;27;96899;-81
2021/01/31 05:17:30;;;;;;;;;;;;;;;0.84;54.78;100290.56;5051033;27;96910;-80
2021/01/31 05:19:56;;;;;;;;;;;;;;;0.95;54.04;100281.84;5053495;27;101403;-80
2021/01/31 05:22:27;;;;;;;;;;;;;;;0.90;53.70;100282.75;5052478;27;98046;-79
2021/01/31 05:24:54;;;;;;;;;;;;;;;0.77;53.49;100276.72;5051987;27;96846;-81
2021/01/31 05:27:20;;;;;;;;;;;;;;;0.84;53.61;100277.56;5053453;27;96879;-80
2021/01/31 05:29:45;;;;;;;;;;;;;;;0.80;54.16;100282.75;5051543;27;98207;-80
2021/01/31 05:32:13;;;;;;;;;;;;;;;1.00;53.75;100284.41;5053664;27;102027;-80
2021/01/31 05:34:39;;;;;;;;;;;;;;;1.09;53.52;100287.00;5052126;27;96919;-80
2021/01/31 05:37:07;;;;;;;;;;;;;;;1.26;52.55;100286.91;5050677;27;96980;-80
2021/01/31 05:39:38;;;;;;;;;;;;;;;1.40;52.57;100293.78;5051837;27;98932;-80
2021/01/31 05:42:05;;;;;;;;;;;;;;;1.32;52.68;100297.28;5057847;27;97702;-80
2021/01/31 05:44:31;;;;;;;;;;;;;;;1.34;52.42;100301.63;5059827;27;96639;-79
2021/01/31 05:47:00;;;;;;;;;;;;;;;1.10;52.86;100296.53;5064364;27;96871;-80
2021/01/31 05:49:31;;;;;;;;;;;;;;;1.08;52.59;100300.88;5069811;27;98287;-79
2021/01/31 05:51:57;;;;;;;;;;;;;;;1.01;52.75;100304.38;5052159;28;96660;-81
2021/01/31 05:54:27;;;;;;;;;;;;;;;1.08;52.72;100309.56;5063634;27;96499;-81
2021/01/31 05:56:55;;;;;;;;;;;;;;;1.11;53.15;100300.88;5072823;27;96584;-80
2021/01/31 05:59:21;;;;;;;;;;;;;;;1.24;52.64;100302.56;5068417;27;98618;-80
2021/01/31 06:01:54;;;;;;;;;;;;;;;1.47;51.80;100312.81;5062503;27;98774;-80
2021/01/31 06:04:22;;;;;;;;;;;;;;;1.51;52.04;100311.97;5063732;27;96670;-80
2021/01/31 06:06:48;;;;;;;;;;;;;;;1.02;52.91;100309.56;5061504;27;96888;-80
2021/01/31 06:09:15;;;;;;;;;;;;;;;1.09;52.51;100315.63;5058305;27;97765;-80
2021/01/31 06:11:41;;;;;;;;;;;;;;;1.44;51.97;100318.06;5058930;27;98096;-79
2021/01/31 06:14:11;;;;;;;;;;;;;;;1.17;52.83;100324.28;5060993;27;96732;-81
2021/01/31 06:16:38;;;;;;;;;;;;;;;0.96;53.26;100322.59;5039078;27;96830;-81
2021/01/31 06:19:07;;;;;;;;;;;;;;;1.23;52.41;100321.63;5037470;27;99547;-81
2021/01/31 06:21:38;;;;;;;;;;;;;;;1.16;52.06;100318.19;5050851;27;100970;-80
2021/01/31 06:24:16;;;;;;;;;;;;;;;1.18;52.64;100319.03;5055248;27;96768;-80
2021/01/31 06:26:41;;;;;;;;;;;;;;;1.09;52.09;100321.69;5053284;27;96767;-81
2021/01/31 06:29:20;;;;;;;;;;;;;;;1.37;51.27;100324.19;5054669;27;101489;-79
2021/01/31 06:31:50;;;;;;;;;;;;;;;1.30;51.39;100327.69;5055742;27;100133;-81
2021/01/31 06:34:15;;;;;;;;;;;;;;;1.31;51.40;100332.03;5042307;27;96860;-79
2021/01/31 06:36:47;;;;;;;;;;;;;;;1.27;51.40;100335.50;5047783;27;96779;-80
2021/01/31 06:39:28;;;;;;;;;;;;;;;0.98;51.94;100333.00;5051119;27;97845;-80
2021/01/31 06:41:57;;;;;;;;;;;;;;;0.97;52.19;100333.88;5058907;27;98231;-79
2021/01/31 06:44:30;;;;;;;;;;;;;;;1.03;51.78;100331.25;5047624;27;96922;-80
2021/01/31 06:47:07;;;;;;;;;;;;;;;0.90;52.17;100330.44;5056607;27;96800;-80
2021/01/31 06:49:36;;;;;;;;;;;;;;;0.78;51.95;100344.34;5058433;27;99431;-80
2021/01/31 06:52:08;;;;;;;;;;;;;;;0.89;52.02;100333.03;5057671;27;99709;-80
2021/01/31 06:54:56;;;;;;;;;;;;;;;0.84;52.01;100343.47;5055227;27;96962;-81
2021/01/31 06:57:46;;;;;;;;;;;;;;;0.86;51.47;100348.63;5047350;27;96988;-80
2021/01/31 07:00:33;;;;;;;;;;;;;;;0.73;52.52;100347.78;5048051;27;101850;-80
2021/01/31 07:03:07;;;;;;;;;;;;;;;0.70;51.95;100340.88;5051577;27;99276;-81
2021/01/31 07:05:45;;;;;;;;;;;;;;;0.65;52.71;100341.78;5056271;27;97291;-81
2021/01/31 07:08:22;;;;;;;;;;;;;;;1.03;50.98;100342.53;5032632;28;96990;-81
2021/01/31 07:10:59;;;;;;;;;;;;;;;0.70;51.95;100353.03;5045282;27;101147;-81
2021/01/31 07:13:33;;;;;;;;;;;;;;;1.06;51.22;100350.31;5052498;27;100308;-81
2021/01/31 07:16:04;;;;;;;;;;;;;;;1.04;51.22;100353.81;5038033;27;97715;-81
2021/01/31 07:18:39;;;;;;;;;;;;;;;0.92;51.21;100352.09;5036526;27;96859;-80
2021/01/31 07:21:08;;;;;;;;;;;;;;;0.89;51.54;100349.50;5047427;27;102321;-81
2021/01/31 07:23:36;;;;;;;;;;;;;;;0.94;50.97;100342.56;5051588;27;99663;-81
2021/01/31 07:26:21;;;;;;;;;;;;;;;0.55;52.05;100353.03;5050554;27;96738;-81
2021/01/31 07:28:47;;;;;;;;;;;;;;;1.01;50.76;100359.88;5051925;27;97129;-80
2021/01/31 07:31:17;;;;;;;;;;;;;;;1.23;50.69;100365.00;5045510;27;101747;-80
2021/01/31 07:33:46;;;;;;;;;;;;;;;1.00;50.36;100365.06;5049168;27;97159;-81
2021/01/31 07:36:21;;;;;;;;;;;;;;;1.24;50.09;100362.41;5051296;27;96917;-81
2021/01/31 07:38:49;;;;;;;;;;;;;;;1.26;49.86;100357.19;5051096;27;96943;-81
2021/01/31 07:41:16;;;;;;;;;;;;;;;1.52;49.08;100358.78;5043313;27;97877;-79
2021/01/31 07:43:42;;;;;;;;;;;;;;;1.58;48.85;100357.91;5049036;27;98861;-81
2021/01/31 07:46:11;;;;;;;;;;;;;;;1.41;49.14;100350.19;5042735;27;96994;-81
2021/01/31 07:48:51;;;;;;;;;;;;;;;1.40;49.94;100353.66;5050136;27;97788;-80
2021/01/31 07:51:20;;;;;;;;;;;;;;;1.72;48.98;100355.22;5054147;27;98175;-80
2021/01/31 07:53:46;;;;;;;;;;;;;;;1.83;48.50;100349.09;5067520;27;98801;-80
2021/01/31 07:56:28;;;;;;;;;;;;;;;1.71;48.84;100356.94;5069585;27;96867;-81
2021/01/31 07:58:55;;;;;;;;;;;;;;;1.99;48.57;100361.13;5072878;27;96497;-80
2021/01/31 08:01:42;;;;;;;;;;;;;;;1.80;49.04;100356.91;5066789;27;97865;-80
2021/01/31 08:04:23;;;;;;;;;;;;;;;2.18;48.84;100358.38;5043695;27;98681;-81
2021/01/31 08:06:51;;;;;;;;;;;;;;;1.90;49.46;100365.56;5055846;27;96760;-81
2021/01/31 08:09:36;;;;;;;;;;;;;;;2.10;48.75;100365.41;5054593;27;96865;-81
2021/01/31 08:12:03;;;;;;;;;;;;;;;2.18;49.12;100363.59;5050034;27;99717;-83
2021/01/31 08:14:48;;;;;;;;;;;;;;;2.30;49.19;100366.97;5048482;27;98663;-82
2021/01/31 08:17:29;;;;;;;;;;;;;;;2.46;48.34;100366.84;5054725;27;97111;-81
2021/01/31 08:20:15;;;;;;;;;;;;;;;2.70;48.41;100359.66;5053404;27;96991;-82
2021/01/31 08:22:42;;;;;;;;;;;;;;;2.61;48.53;100364.13;5043268;27;100955;-81
2021/01/31 08:25:21;;;;;;;;;;;;;;;2.97;47.43;100366.34;5037763;27;98793;-81
2021/01/31 08:27:49;;;;;;;;;;;;;;;3.03;47.67;100366.28;5035052;27;96976;-82
2021/01/31 08:30:17;;;;;;;;;;;;;;;3.15;47.10;100368.75;5033302;27;97001;-80
2021/01/31 08:33:02;;;;;;;;;;;;;;;3.06;47.56;100366.25;5041217;27;99358;-80
2021/01/31 08:35:29;;;;;;;;;;;;;;;3.14;47.73;100371.41;5039377;27;100480;-80
2021/01/31 08:38:10;;;;;;;;;;;;;;;3.30;47.76;100370.31;5037070;27;97007;-80
2021/01/31 08:40:37;;;;;;;;;;;;;;;3.67;46.33;100364.66;5040589;27;96851;-81
2021/01/31 08:43:03;;;;;;;;;;;;;;;3.72;45.82;100373.28;5034663;27;97029;-79
2021/01/31 08:45:41;;;;;;;;;;;;;;;3.54;46.00;100370.00;5042975;27;97810;-80
2021/01/31 08:48:07;;;;;;;;;;;;;;;3.74;45.73;100371.53;5041882;27;97546;-81
2021/01/31 08:50:34;;;;;;;;;;;;;;;3.87;44.83;100380.91;5044883;27;96948;-80
2021/01/31 08:53:00;;;;;;;;;;;;;;;3.94;45.64;100385.16;5051789;27;98864;-80
2021/01/31 08:55:26;;;;;;;;;;;;;;;3.91;45.54;100383.47;5050714;27;102294;-79
2021/01/31 08:57:57;;;;;;;;;;;;;;;3.85;45.02;100387.91;5053820;27;96866;-79
2021/01/31 09:00:25;;;;;;;;;;;;;;;3.96;44.58;100383.38;5054203;27;97121;-81
2021/01/31 09:02:51;;;;;;;;;;;;;;;3.97;44.67;100385.13;5051918;27;98731;-79
2021/01/31 09:05:18;;;;;;;;;;;;;;;4.31;44.58;100383.72;5055834;27;101352;-80
2021/01/31 09:07:57;;;;;;;;;;;;;;;4.59;43.22;100378.91;5061413;27;96841;-80
2021/01/31 09:10:27;;;;;;;;;;;;;;;4.26;43.46;100387.31;5060098;27;96904;-81
2021/01/31 09:13:06;;;;;;;;;;;;;;;4.31;43.56;100383.72;5055721;27;101743;-83
2021/01/31 09:15:50;;;;;;;;;;;;;;;4.26;43.82;100382.09;5062704;27;99450;-82
2021/01/31 09:18:37;;;;;;;;;;;;;;;4.54;42.80;100387.72;5061172;27;96779;-81
2021/01/31 09:21:17;;;;;;;;;;;;;;;4.68;42.54;100380.50;5063690;27;96851;-79
2021/01/31 09:23:43;;;;;;;;;;;;;;;4.39;42.93;100389.72;5042148;27;97194;-80
2021/01/31 09:26:09;;;;;;;;;;;;;;;4.59;42.43;100385.91;5041177;27;98988;-80
2021/01/31 09:28:44;;;;;;;;;;;;;;;4.60;42.20;100382.38;5048889;27;97282;-81
2021/01/31 09:31:10;;;;;;;;;;;;;;;4.56;42.11;100381.56;5055303;27;98516;-81
2021/01/31 09:33:40;;;;;;;;;;;;;;;4.46;42.58;100390.47;5052337;27;100412;-81
2021/01/31 09:36:21;;;;;;;;;;;;;;;4.62;41.83;100380.59;5035201;28;101981;-80
2021/01/31 09:38:47;;;;;;;;;;;;;;;5.09;40.80;100378.00;5036732;28;96758;-80
2021/01/31 09:41:14;;;;;;;;;;;;;;;5.25;41.42;100381.16;5035240;28;96985;-80
2021/01/31 09:43:43;;;;;;;;;;;;;;;5.42;41.07;100380.84;5034640;28;101575;-80
2021/01/31 09:46:13;;;;;;;;;;;;;;;5.30;41.15;100381.97;5035940;28;98915;-81
2021/01/31 09:48:39;;;;;;;;;;;;;;;5.13;40.82;100384.88;5042956;27;96787;-79
2021/01/31 09:51:06;;;;;;;;;;;;;;;5.51;40.38;100386.75;5055936;27;97219;-79
2021/01/31 09:53:35;;;;;;;;;;;;;;;5.50;40.40;100386.81;5054889;27;101159;-81
2021/01/31 09:56:02;;;;;;;;;;;;;;;5.19;41.09;100390.00;5054217;27;100084;-81
2021/01/31 09:58:33;;;;;;;;;;;;;;;5.45;40.59;100391.25;5054589;27;96681;-79
2021/01/31 10:01:08;;;;;;;;;;;;;;;5.79;39.82;100394.91;5054501;27;96822;-79
2021/01/31 10:03:38;;;;;;;;;;;;;;;5.59;40.41;100395.31;5054942;27;101541;-79
2021/01/31 10:06:05;;;;;;;;;;;;;;;5.41;40.67;100390.47;5053822;27;97798;-81
2021/01/31 10:08:31;;;;;;;;;;;;;;;5.82;40.07;100392.22;5053789;27;96859;-80
2021/01/31 10:10:57;;;;;;;;;;;;;;;5.57;39.91;100391.91;5054038;27;96893;-80
2021/01/31 10:13:25;;;;;;;;;;;;;;;5.58;40.16;100388.34;5053166;27;98806;-80
2021/01/31 10:15:56;;;;;;;;;;;;;;;5.88;39.68;100375.53;5054263;27;101186;-80
2021/01/31 10:18:28;;;;;;;;;;;;;;;5.93;40.11;100376.28;5055267;27;96806;-81
2021/01/31 10:21:08;;;;;;;;;;;;;;;6.09;39.30;100380.28;5055497;27;96779;-80
2021/01/31 10:23:34;;;;;;;;;;;;;;;6.46;39.42;100371.53;5055282;27;97872;-81
2021/01/31 10:26:03;;;;;;;;;;;;;;;6.36;39.10;100373.53;5056738;27;98974;-81
2021/01/31 10:28:31;;;;;;;;;;;;;;;6.46;38.69;100369.78;5056027;27;96819;-82
2021/01/31 10:30:58;;;;;;;;;;;;;;;6.37;38.70;100380.47;5056870;27;96692;-80
2021/01/31 10:33:42;;;;;;;;;;;;;;;6.23;39.00;100377.34;5054706;27;99844;-81
2021/01/31 10:36:15;;;;;;;;;;;;;;;6.10;40.14;100370.66;5055962;27;101334;-82
2021/01/31 10:38:42;;;;;;;;;;;;;;;6.62;38.75;100376.38;5057553;27;96763;-81
2021/01/31 10:41:08;;;;;;;;;;;;;;;6.38;38.96;100369.09;5055000;27;96707;-80
2021/01/31 10:43:34;;;;;;;;;;;;;;;6.22;39.26;100370.38;5053822;27;100191;-80
2021/01/31 10:46:00;;;;;;;;;;;;;;;6.19;39.20;100373.06;5054643;27;100170;-80
2021/01/31 10:48:27;;;;;;;;;;;;;;;6.03;38.91;100369.09;5054208;27;97249;-79
2021/01/31 10:50:54;;;;;;;;;;;;;;;6.33;39.37;100363.97;5040525;27;97407;-80
2021/01/31 10:53:20;;;;;;;;;;;;;;;6.36;38.40;100368.28;5046054;27;97859;-80
2021/01/31 10:55:46;;;;;;;;;;;;;;;6.28;38.22;100364.97;5055735;27;96788;-79
2021/01/31 10:58:12;;;;;;;;;;;;;;;6.34;38.21;100359.59;5041523;27;96813;-80
2021/01/31 11:00:38;;;;;;;;;;;;;;;6.08;39.30;100362.81;5058127;27;97008;-79
2021/01/31 11:03:05;;;;;;;;;;;;;;;6.39;38.37;100368.19;5057490;27;98241;-81
2021/01/31 11:05:30;;;;;;;;;;;;;;;6.46;37.68;100366.28;5060771;27;97790;-80
2021/01/31 11:07:57;;;;;;;;;;;;;;;6.66;37.59;100364.03;5058525;27;96909;-80
2021/01/31 11:10:23;;;;;;;;;;;;;;;6.27;37.90;100363.25;5054321;27;96815;-80
2021/01/31 11:12:49;;;;;;;;;;;;;;;6.26;37.55;100356.28;5052438;27;97156;-83
2021/01/31 11:15:16;;;;;;;;;;;;;;;6.22;37.97;100360.75;5052886;27;100274;-80
2021/01/31 11:17:42;;;;;;;;;;;;;;;6.10;38.57;100354.94;5053887;27;97003;-80
2021/01/31 11:20:09;;;;;;;;;;;;;;;6.49;37.17;100358.34;5055754;27;97291;-80
2021/01/31 11:22:35;;;;;;;;;;;;;;;5.88;38.76;100349.31;5052243;27;102699;-80
2021/01/31 11:25:03;;;;;;;;;;;;;;;6.08;38.60;100354.97;5051498;27;97682;-80
2021/01/31 11:27:29;;;;;;;;;;;;;;;6.00;38.13;100346.41;5053129;27;98799;-80
2021/01/31 11:29:55;;;;;;;;;;;;;;;5.75;38.99;100350.44;5053859;27;97844;-80
2021/01/31 11:32:21;;;;;;;;;;;;;;;6.05;37.85;100346.28;5057897;27;101515;-80
2021/01/31 11:34:49;;;;;;;;;;;;;;;6.19;38.03;100349.44;5060278;27;96829;-81
2021/01/31 11:37:15;;;;;;;;;;;;;;;5.88;37.77;100344.06;5055626;27;97059;-80
2021/01/31 11:39:41;;;;;;;;;;;;;;;5.77;38.36;100348.66;5053992;27;99921;-80
2021/01/31 11:42:08;;;;;;;;;;;;;;;5.69;38.42;100347.97;5062875;27;100920;-79
2021/01/31 11:44:34;;;;;;;;;;;;;;;5.57;39.60;100346.47;5058590;27;100610;-81
2021/01/31 11:47:00;;;;;;;;;;;;;;;5.53;39.09;100347.41;5066352;27;96932;-82
2021/01/31 11:49:26;;;;;;;;;;;;;;;6.05;38.65;100347.16;5063362;27;96428;-82
2021/01/31 11:51:52;;;;;;;;;;;;;;;5.66;38.12;100341.00;5071270;27;96937;-82
2021/01/31 11:54:25;;;;;;;;;;;;;;;5.81;38.60;100337.19;5068276;27;100636;-81
2021/01/31 11:56:56;;;;;;;;;;;;;;;5.64;39.06;100340.19;5066290;27;96882;-83
2021/01/31 11:59:23;;;;;;;;;;;;;;;5.78;38.23;100332.88;5060774;27;96818;-79
2021/01/31 12:01:49;;;;;;;;;;;;;;;5.84;38.33;100326.66;5059888;27;98992;-80
2021/01/31 12:04:15;;;;;;;;;;;;;;;5.57;39.28;100320.25;5062195;27;98553;-80
2021/01/31 12:06:42;;;;;;;;;;;;;;;5.69;38.64;100317.38;5060190;27;96643;-80
2021/01/31 12:09:08;;;;;;;;;;;;;;;5.60;38.76;100318.41;5056751;27;96882;-80
2021/01/31 12:11:33;;;;;;;;;;;;;;;5.81;39.22;100324.94;5054792;27;101147;-79
2021/01/31 12:13:59;;;;;;;;;;;;;;;5.92;38.60;100322.97;5058337;27;100380;-80
2021/01/31 12:16:26;;;;;;;;;;;;;;;5.93;38.58;100314.22;5060324;27;96729;-80
2021/01/31 12:18:52;;;;;;;;;;;;;;;6.15;38.38;100305.84;5043990;27;97299;-79
2021/01/31 12:24:22;;;;;;;;;;;;;;;6.19;38.53;100302.22;5035512;27;96900;-81
2021/01/31 12:26:50;;;;;;;;;;;;;;;6.22;39.27;100296.91;5055594;27;97629;-78
2021/01/31 12:29:16;;;;;;;;;;;;;;;6.24;38.63;100302.97;5057826;27;96885;-81
2021/01/31 12:32:06;;;;;;;;;;;;;;;6.00;38.93;100304.44;5057980;27;101340;-83
2021/01/31 12:34:33;;;;;;;;;;;;;;;6.13;38.77;100295.38;5058207;27;99522;-82
2021/01/31 12:36:59;;;;;;;;;;;;;;;6.21;38.57;100303.06;5050031;27;97342;-81
2021/01/31 12:39:27;;;;;;;;;;;;;;;6.10;38.87;100302.47;5056596;27;96767;-81
2021/01/31 12:41:57;;;;;;;;;;;;;;;5.72;39.69;100298.94;5064656;27;98670;-82
2021/01/31 12:44:23;;;;;;;;;;;;;;;5.86;38.86;100291.59;5056909;27;99826;-82
2021/01/31 12:46:49;;;;;;;;;;;;;;;6.00;39.03;100289.56;5050517;27;96899;-81
2021/01/31 12:49:15;;;;;;;;;;;;;;;5.92;39.43;100290.63;5047702;27;97499;-81
2021/01/31 12:51:42;;;;;;;;;;;;;;;5.84;39.95;100285.53;5050547;27;97951;-81
2021/01/31 12:54:08;;;;;;;;;;;;;;;6.05;39.42;100278.09;5050001;27;101307;-81
2021/01/31 12:56:33;;;;;;;;;;;;;;;6.19;39.29;100273.38;5055648;27;96952;-82
2021/01/31 12:59:00;;;;;;;;;;;;;;;6.03;39.42;100269.41;5057159;27;96915;-85